Terminal Aerodrome Forecast
Issued by NWS Brownsville, TX

Home | Current Version | Previous Version | Text Only | Print | Product List | Glossary On
Versions: 1 2 3 4 5 6 7 8 9 10 11 12 13 14 15 16 17 18
000
FTUS44 KBRO 032323
TAFHRL
TAF
KHRL 032323Z 0400/0424 16020G25KT P6SM FEW020
     FM040100 16015G20KT 6SM BR BKN010
     FM041500 17020G28KT P6SM SCT030=

USA.gov is the U.S. government's official web portal to all federal, state and local government web resources and services.